createdAt,value
2018-12-16T00:00:16.201Z,21.36
2018-12-16T00:02:42.773Z,21.35
2018-12-16T00:05:09.333Z,21.35
2018-12-16T00:07:35.869Z,21.35
2018-12-16T00:10:02.445Z,21.35
2018-12-16T00:12:28.980Z,21.35
2018-12-16T00:14:55.520Z,21.34
2018-12-16T00:17:22.056Z,21.37
2018-12-16T00:19:48.625Z,21.35
2018-12-16T00:22:15.192Z,21.35
2018-12-16T00:24:41.777Z,21.36
2018-12-16T00:27:08.458Z,21.35
2018-12-16T00:29:35.008Z,21.35
2018-12-16T00:32:01.592Z,21.35
2018-12-16T00:34:28.124Z,21.36
2018-12-16T00:36:54.666Z,21.36
2018-12-16T00:39:21.244Z,21.35
2018-12-16T00:41:47.783Z,21.36
2018-12-16T00:44:14.318Z,21.35
2018-12-16T00:46:40.959Z,21.36
2018-12-16T00:49:07.492Z,21.36
2018-12-16T00:51:34.024Z,21.35
2018-12-16T00:54:00.644Z,21.36
2018-12-16T00:56:27.275Z,21.35
2018-12-16T00:58:53.821Z,21.36
2018-12-16T01:01:20.476Z,21.36
2018-12-16T01:03:47.005Z,21.37
2018-12-16T01:06:13.564Z,21.35
2018-12-16T01:08:40.106Z,21.35
2018-12-16T01:11:06.652Z,21.35
2018-12-16T01:13:33.200Z,21.31
2018-12-16T01:15:59.769Z,21.35
2018-12-16T01:18:26.343Z,21.35
2018-12-16T01:20:52.880Z,21.36
2018-12-16T01:23:19.437Z,21.36
2018-12-16T01:25:45.985Z,21.36
2018-12-16T01:28:12.529Z,21.35
2018-12-16T01:30:39.094Z,21.35
2018-12-16T01:33:05.640Z,21.36
2018-12-16T01:35:32.177Z,21.35
2018-12-16T01:37:58.717Z,21.35
2018-12-16T01:40:25.280Z,21.35
2018-12-16T01:42:51.821Z,21.35
2018-12-16T01:45:18.372Z,21.36
2018-12-16T01:47:44.921Z,21.36
2018-12-16T01:50:11.457Z,21.37
2018-12-16T01:52:38.013Z,21.35
2018-12-16T01:55:04.544Z,21.36
2018-12-16T01:57:31.115Z,21.36
2018-12-16T01:59:57.655Z,21.36
2018-12-16T02:02:24.205Z,21.35
2018-12-16T02:04:50.753Z,21.35
2018-12-16T02:07:17.353Z,21.36
2018-12-16T02:09:43.913Z,21.36
2018-12-16T02:12:10.453Z,21.35
2018-12-16T02:14:37.004Z,21.36
2018-12-16T02:17:03.584Z,21.36
2018-12-16T02:19:30.148Z,21.36
2018-12-16T02:21:58.107Z,21.37
2018-12-16T02:24:24.673Z,21.38
2018-12-16T02:26:51.208Z,21.38
2018-12-16T02:29:17.754Z,21.37
2018-12-16T02:31:44.302Z,21.37
2018-12-16T02:34:10.871Z,21.37
2018-12-16T02:36:37.421Z,21.37
2018-12-16T02:39:04.192Z,21.37
2018-12-16T02:41:30.756Z,21.37
2018-12-16T02:43:57.297Z,21.38
2018-12-16T02:46:23.854Z,21.38
2018-12-16T02:48:50.402Z,21.37
2018-12-16T02:51:16.947Z,21.37
2018-12-16T02:53:43.495Z,21.37
2018-12-16T02:56:11.472Z,21.37
2018-12-16T02:58:38.206Z,21.38
2018-12-16T03:01:04.748Z,21.38
2018-12-16T03:03:31.279Z,21.37
2018-12-16T03:05:57.821Z,21.38
2018-12-16T03:08:24.393Z,21.38
2018-12-16T03:10:50.918Z,21.38
2018-12-16T03:13:17.685Z,21.38
2018-12-16T03:15:44.272Z,21.39
2018-12-16T03:18:10.823Z,21.38
2018-12-16T03:20:37.377Z,21.37
2018-12-16T03:23:03.906Z,21.38
2018-12-16T03:25:30.486Z,21.39
2018-12-16T03:27:57.021Z,21.38
2018-12-16T03:30:23.569Z,21.39
2018-12-16T03:32:50.136Z,21.39
2018-12-16T03:35:16.665Z,21.39
2018-12-16T03:37:43.204Z,21.39
2018-12-16T03:40:09.744Z,21.38
2018-12-16T03:42:36.282Z,21.38
2018-12-16T03:45:02.825Z,21.39
2018-12-16T03:47:29.373Z,21.39
2018-12-16T03:49:55.940Z,21.39
2018-12-16T03:52:22.480Z,21.39
2018-12-16T03:54:49.217Z,21.38
2018-12-16T03:57:15.784Z,21.38
2018-12-16T03:59:42.341Z,21.39
2018-12-16T04:02:08.877Z,21.39
2018-12-16T04:04:35.434Z,21.39
2018-12-16T04:07:01.972Z,21.38
2018-12-16T04:09:28.512Z,21.39
2018-12-16T04:11:55.074Z,21.40
2018-12-16T04:14:21.691Z,21.39
2018-12-16T04:16:48.272Z,21.39
2018-12-16T04:19:14.837Z,21.39
2018-12-16T04:21:41.397Z,21.20
2018-12-16T04:24:07.936Z,21.39
2018-12-16T04:26:34.477Z,21.38
2018-12-16T04:29:01.033Z,21.38
2018-12-16T04:31:27.674Z,21.40
2018-12-16T04:33:54.241Z,21.40
2018-12-16T04:36:20.767Z,21.39
2018-12-16T04:38:47.312Z,21.40
2018-12-16T04:41:13.859Z,21.39
2018-12-16T04:43:40.409Z,21.39
2018-12-16T04:46:06.975Z,21.40
2018-12-16T04:48:33.512Z,21.41
2018-12-16T04:51:00.077Z,21.40
2018-12-16T04:53:26.612Z,21.40
2018-12-16T04:55:53.147Z,21.40
2018-12-16T04:58:19.707Z,21.40
2018-12-16T05:00:46.235Z,21.39
2018-12-16T05:03:12.773Z,21.40
2018-12-16T05:05:39.339Z,21.39
2018-12-16T05:08:05.956Z,21.40
2018-12-16T05:10:32.493Z,21.40
2018-12-16T05:12:59.031Z,21.40
2018-12-16T05:15:25.624Z,21.40
2018-12-16T05:17:52.171Z,21.40
2018-12-16T05:20:18.722Z,21.40
2018-12-16T05:22:45.273Z,21.42
2018-12-16T05:25:11.946Z,21.40
2018-12-16T05:27:38.479Z,21.42
2018-12-16T05:30:05.015Z,21.42
2018-12-16T05:32:32.784Z,21.42
2018-12-16T05:34:59.541Z,21.40
2018-12-16T05:37:26.105Z,21.42
2018-12-16T05:39:52.631Z,21.42
2018-12-16T05:42:19.189Z,21.42
2018-12-16T05:44:45.745Z,21.43
2018-12-16T05:47:12.291Z,21.41
2018-12-16T05:49:38.827Z,21.42
2018-12-16T05:52:05.352Z,21.42
2018-12-16T05:54:31.934Z,21.42
2018-12-16T05:56:58.473Z,21.41
2018-12-16T05:59:25.031Z,21.41
2018-12-16T06:01:51.728Z,21.42
2018-12-16T06:04:18.260Z,21.42
2018-12-16T06:06:44.802Z,21.43
2018-12-16T06:09:11.353Z,21.42
2018-12-16T06:11:37.900Z,21.42
2018-12-16T06:14:04.469Z,21.42
2018-12-16T06:16:31.031Z,21.43
2018-12-16T06:18:57.565Z,21.43
2018-12-16T06:21:24.118Z,21.41
2018-12-16T06:23:55.620Z,21.42
2018-12-16T06:26:19.259Z,21.43
2018-12-16T06:28:45.788Z,21.43
2018-12-16T06:31:12.327Z,21.43
2018-12-16T06:33:38.869Z,21.45
2018-12-16T06:36:05.503Z,21.45
2018-12-16T06:38:32.057Z,21.44
2018-12-16T06:40:58.592Z,21.43
2018-12-16T06:43:25.131Z,21.43
2018-12-16T06:45:51.685Z,21.47
2018-12-16T06:48:18.251Z,21.46
2018-12-16T06:50:44.792Z,21.46
2018-12-16T06:53:11.337Z,21.46
2018-12-16T06:55:43.329Z,21.46
2018-12-16T06:58:06.416Z,21.46
2018-12-16T07:00:32.965Z,21.46
2018-12-16T07:02:59.519Z,21.45
2018-12-16T07:05:26.080Z,21.46
2018-12-16T07:07:52.612Z,21.46
2018-12-16T07:10:19.482Z,21.43
2018-12-16T07:12:46.048Z,21.45
2018-12-16T07:15:12.766Z,21.44
2018-12-16T07:17:39.332Z,21.43
2018-12-16T07:20:05.900Z,21.44
2018-12-16T07:22:32.528Z,21.43
2018-12-16T07:24:59.105Z,21.45
2018-12-16T07:27:25.676Z,21.43
2018-12-16T07:29:52.359Z,21.44
2018-12-16T07:32:19.207Z,21.46
2018-12-16T07:34:45.793Z,21.46
2018-12-16T07:37:18.769Z,21.43
2018-12-16T07:39:41.075Z,21.45
2018-12-16T07:42:07.704Z,21.44
2018-12-16T07:44:34.265Z,21.43
2018-12-16T07:47:00.830Z,21.44
2018-12-16T07:49:27.401Z,21.44
2018-12-16T07:51:54.120Z,21.44
2018-12-16T07:54:20.776Z,21.43
2018-12-16T07:56:47.408Z,21.44
2018-12-16T07:59:14.070Z,21.42
2018-12-16T08:01:40.621Z,21.41
2018-12-16T08:04:07.174Z,21.41
2018-12-16T08:06:33.749Z,21.41
2018-12-16T08:09:00.315Z,21.42
2018-12-16T08:11:27.008Z,21.44
2018-12-16T08:13:53.551Z,21.43
2018-12-16T08:16:20.087Z,21.41
2018-12-16T08:18:46.634Z,21.42
2018-12-16T08:21:13.757Z,21.42
2018-12-16T08:23:40.295Z,21.43
2018-12-16T08:26:06.883Z,21.46
2018-12-16T08:28:33.413Z,21.45
2018-12-16T08:30:59.969Z,21.46
2018-12-16T08:33:26.505Z,21.49
2018-12-16T08:35:53.036Z,21.46
